createdAt,value
2022-08-28T00:00:16.877Z,102262.59
2022-08-28T00:02:43.580Z,102260.16
2022-08-28T00:05:14.055Z,102267.44
2022-08-28T00:07:47.915Z,102267.78
2022-08-28T00:10:16.853Z,102270.34
2022-08-28T00:12:44.702Z,102253.84
2022-08-28T00:15:17.516Z,102259.94
2022-08-28T00:17:44.121Z,102268.44
2022-08-28T00:20:21.244Z,102258.47
2022-08-28T00:22:51.358Z,102261.88
2022-08-28T00:25:20.114Z,102261.56
2022-08-28T00:27:52.491Z,102260.28
2022-08-28T00:30:25.142Z,102266.28
2022-08-28T00:32:53.964Z,102262.63
2022-08-28T00:35:21.135Z,102267.03
2022-08-28T00:37:48.142Z,102267.13
2022-08-28T00:40:20.087Z,102263.59
2022-08-28T00:42:58.089Z,102271.63
2022-08-28T00:45:25.589Z,102264.69
2022-08-28T00:47:55.199Z,102249.78
2022-08-28T00:50:25.515Z,102256.84
2022-08-28T00:52:58.523Z,102253.22
2022-08-28T00:55:27.072Z,102254.06
2022-08-28T00:57:56.788Z,102253.31
2022-08-28T01:00:33.771Z,102263.94
2022-08-28T01:03:03.291Z,102265.75
2022-08-28T01:05:30.285Z,102265.97
2022-08-28T01:07:58.964Z,102275.63
2022-08-28T01:10:29.710Z,102274.13
2022-08-28T01:12:57.789Z,102271.44
2022-08-28T01:15:29.869Z,102264.25
2022-08-28T01:18:04.653Z,102270.47
2022-08-28T01:20:36.384Z,102270.81
2022-08-28T01:23:25.032Z,102265.44
2022-08-28T01:25:52.576Z,102267.59
2022-08-28T01:28:19.117Z,102253.88
2022-08-28T01:30:48.169Z,102256.78
2022-08-28T01:33:15.881Z,102252.28
2022-08-28T01:35:45.890Z,102268.97
2022-08-28T01:38:19.323Z,102266.31
2022-08-28T01:40:49.426Z,102264.47
2022-08-28T01:43:24.053Z,102266.53
2022-08-28T01:45:54.407Z,102273.38
2022-08-28T01:48:22.636Z,102269.84
2022-08-28T01:50:49.156Z,102258.72
2022-08-28T01:53:17.816Z,102264.25
2022-08-28T01:55:46.002Z,102264.25
2022-08-28T01:58:13.224Z,102261.91
2022-08-28T02:00:41.108Z,102273.25
2022-08-28T02:03:07.647Z,102263.28
2022-08-28T02:05:35.872Z,102265.66
2022-08-28T02:08:05.300Z,102275.63
2022-08-28T02:10:35.631Z,102269.72
2022-08-28T02:13:03.873Z,102271.66
2022-08-28T02:15:32.861Z,102271.13
2022-08-28T02:18:00.069Z,102280.44
2022-08-28T02:20:29.207Z,102274.44
2022-08-28T02:22:58.103Z,102273.47
2022-08-28T02:25:24.934Z,102279.81
2022-08-28T02:27:51.522Z,102284.31
2022-08-28T02:30:18.464Z,102286.97
2022-08-28T02:32:46.186Z,102282.38
2022-08-28T02:35:15.406Z,102283.13
2022-08-28T02:37:44.217Z,102279.59
2022-08-28T02:40:16.749Z,102279.47
2022-08-28T02:42:44.213Z,102284.09
2022-08-28T02:45:15.224Z,102285.28
2022-08-28T02:47:43.810Z,102284.94
2022-08-28T02:50:13.472Z,102274.22
2022-08-28T02:52:43.866Z,102276.50
2022-08-28T02:55:12.958Z,102279.16
2022-08-28T02:57:39.805Z,102279.91
2022-08-28T03:00:11.818Z,102280.66
2022-08-28T03:02:41.583Z,102287.72
2022-08-28T03:05:16.765Z,102289.56
2022-08-28T03:07:43.245Z,102282.28
2022-08-28T03:10:10.900Z,102287.63
2022-08-28T03:12:38.226Z,102291.91
2022-08-28T03:15:06.207Z,102286.88
2022-08-28T03:17:32.628Z,102292.97
2022-08-28T03:19:59.246Z,102294.91
2022-08-28T03:22:45.028Z,102285.38
2022-08-28T03:25:12.550Z,102284.63
2022-08-28T03:27:41.858Z,102283.66
2022-08-28T03:30:08.959Z,102297.06
2022-08-28T03:32:35.948Z,102297.06
2022-08-28T03:35:04.183Z,102300.72
2022-08-28T03:37:31.437Z,102290.44
2022-08-28T03:39:57.994Z,102288.78
2022-08-28T03:42:24.523Z,102294.81
2022-08-28T03:44:51.603Z,102296.53
2022-08-28T03:47:18.303Z,102296.94
2022-08-28T03:49:48.759Z,102284.63
2022-08-28T03:52:15.707Z,102297.59
2022-08-28T03:54:42.300Z,102300.16
2022-08-28T03:57:09.003Z,102292.88
2022-08-28T03:59:38.399Z,102292.66
2022-08-28T04:02:07.321Z,102303.25
2022-08-28T04:04:33.883Z,102300.69
2022-08-28T04:07:00.328Z,102306.03
2022-08-28T04:09:27.042Z,102303.16
2022-08-28T04:11:54.143Z,102315.13
2022-08-28T04:14:20.649Z,102312.25
2022-08-28T04:16:47.190Z,102309.69
2022-08-28T04:19:13.928Z,102317.59
2022-08-28T04:21:44.030Z,102320.72
2022-08-28T04:24:13.686Z,102316.44
2022-08-28T04:26:42.064Z,102319.00
2022-08-28T04:29:08.819Z,102326.59
2022-08-28T04:31:36.023Z,102326.72
2022-08-28T04:34:05.342Z,102329.94
2022-08-28T04:36:35.682Z,102318.69
2022-08-28T04:39:05.893Z,102329.38
2022-08-28T04:41:32.554Z,102325.97
2022-08-28T04:43:59.030Z,102327.69
2022-08-28T04:46:26.116Z,102332.19
2022-08-28T04:48:58.856Z,102325.00
2022-08-28T04:51:26.325Z,102327.69
2022-08-28T04:53:52.966Z,102331.22
2022-08-28T04:56:19.384Z,102331.09
2022-08-28T04:58:46.128Z,102335.72
2022-08-28T05:01:19.405Z,102335.59
2022-08-28T05:03:47.858Z,102338.28
2022-08-28T05:06:16.124Z,102337.44
2022-08-28T05:08:42.868Z,102350.06
2022-08-28T05:11:33.012Z,102349.97
2022-08-28T05:14:00.948Z,102346.22
2022-08-28T05:16:29.644Z,102350.38
2022-08-28T05:19:02.873Z,102363.50
2022-08-28T05:21:29.364Z,102352.75
2022-08-28T05:23:57.818Z,102345.56
2022-08-28T05:26:26.784Z,102354.88
2022-08-28T05:28:55.969Z,102362.75
2022-08-28T05:31:23.332Z,102352.09
2022-08-28T05:33:51.819Z,102358.88
2022-08-28T05:36:19.635Z,102363.28
2022-08-28T05:38:46.778Z,102367.34
2022-08-28T05:41:20.596Z,102363.06
2022-08-28T05:43:47.848Z,102363.59
2022-08-28T05:46:16.159Z,102362.75
2022-08-28T05:48:46.138Z,102357.81
2022-08-28T05:51:19.226Z,102357.06
2022-08-28T05:53:47.780Z,102356.31
2022-08-28T05:56:19.681Z,102356.75
2022-08-28T05:58:46.198Z,102355.88
2022-08-28T06:01:19.564Z,102360.72
2022-08-28T06:03:53.868Z,102367.47
2022-08-28T06:06:25.473Z,102365.75
2022-08-28T06:08:59.475Z,102357.78
2022-08-28T06:11:27.197Z,102355.09
2022-08-28T06:14:04.702Z,102362.50
2022-08-28T06:16:34.996Z,102364.22
2022-08-28T06:19:01.761Z,102330.50
2022-08-28T06:21:30.502Z,102325.94
2022-08-28T06:23:57.337Z,102358.91
2022-08-28T06:26:24.036Z,102335.91
2022-08-28T06:28:52.422Z,102348.88
2022-08-28T06:31:23.508Z,102383.47
2022-08-28T06:33:56.165Z,102366.66
2022-08-28T06:36:24.076Z,102377.19
2022-08-28T06:38:50.754Z,102385.75
2022-08-28T06:41:19.787Z,102387.50
2022-08-28T06:43:46.559Z,102382.19
2022-08-28T06:46:13.702Z,102350.91
2022-08-28T06:48:43.297Z,102359.44
2022-08-28T06:51:14.102Z,102342.72
2022-08-28T06:53:46.170Z,102365.84
2022-08-28T06:56:26.414Z,102360.75
2022-08-28T06:58:55.870Z,102380.56
2022-08-28T07:01:27.503Z,102367.94
2022-08-28T07:04:01.321Z,102366.88
2022-08-28T07:06:31.676Z,102387.22
2022-08-28T07:08:58.248Z,102388.09
2022-08-28T07:11:30.344Z,102402.34
2022-08-28T07:13:57.982Z,102394.97
2022-08-28T07:16:27.672Z,102398.91
2022-08-28T07:18:54.560Z,102378.88
2022-08-28T07:21:21.267Z,102410.53
2022-08-28T07:23:48.289Z,102402.19
2022-08-28T07:26:22.476Z,102412.34
2022-08-28T07:28:49.625Z,102409.72
2022-08-28T07:31:20.996Z,102413.91
2022-08-28T07:33:50.095Z,102407.78
2022-08-28T07:36:29.907Z,102422.56
2022-08-28T07:39:00.786Z,102413.56
2022-08-28T07:41:32.878Z,102420.91
2022-08-28T07:44:18.666Z,102400.75
2022-08-28T07:46:45.895Z,102417.75
2022-08-28T07:49:17.790Z,102416.16
2022-08-28T07:51:46.870Z,102414.34
2022-08-28T07:54:17.780Z,102412.50
2022-08-28T07:56:45.376Z,102421.41
2022-08-28T07:59:12.316Z,102429.47
2022-08-28T08:01:48.338Z,102432.03
2022-08-28T08:04:19.850Z,102427.03
2022-08-28T08:06:46.864Z,102429.59
2022-08-28T08:09:15.564Z,102430.22
2022-08-28T08:11:42.894Z,102436.63
2022-08-28T08:14:16.457Z,102432.97
2022-08-28T08:16:45.026Z,102440.22
2022-08-28T08:19:15.497Z,102438.16
2022-08-28T08:21:54.533Z,102439.66
2022-08-28T08:24:25.670Z,102442.91
2022-08-28T08:27:00.114Z,102440.84
2022-08-28T08:29:33.673Z,102435.72
2022-08-28T08:32:05.824Z,102438.16
2022-08-28T08:34:35.390Z,102442.47
2022-08-28T08:37:01.976Z,102438.81
2022-08-28T08:39:28.459Z,102435.66
2022-08-28T08:42:00.897Z,102443.75
2022-08-28T08:44:34.416Z,102450.22
2022-08-28T08:47:27.076Z,102445.34
2022-08-28T08:50:00.550Z,102446.44
2022-08-28T08:52:36.935Z,102456.59
2022-08-28T08:55:17.125Z,102447.16
2022-08-28T08:57:49.450Z,102455.88
2022-08-28T09:00:17.358Z,102447.56
2022-08-28T09:02:53.492Z,102445.38
2022-08-28T09:05:24.195Z,102434.59
2022-08-28T09:07:59.407Z,102440.72
2022-08-28T09:10:38.754Z,102408.53
2022-08-28T09:13:25.850Z,102398.91
2022-08-28T09:15:52.851Z,102415.91
2022-08-28T09:18:22.456Z,102443.91
2022-08-28T09:20:55.402Z,102434.00
2022-08-28T09:23:25.092Z,102443.91
2022-08-28T09:25:59.698Z,102445.88
2022-08-28T09:28:32.408Z,102433.66
2022-08-28T09:31:05.272Z,102445.50
2022-08-28T09:33:52.593Z,102439.88
2022-08-28T09:36:23.389Z,102447.06
2022-08-28T09:39:07.234Z,102450.03
2022-08-28T09:41:58.445Z,102457.72
2022-08-28T09:44:25.450Z,102465.91
2022-08-28T09:46:52.406Z,102444.88
2022-08-28T09:49:29.056Z,102454.69
2022-08-28T09:51:59.465Z,102465.44
2022-08-28T09:54:42.544Z,102450.63
2022-08-28T09:57:09.926Z,102453.22
2022-08-28T09:59:36.498Z,102451.25
2022-08-28T10:02:42.430Z,102458.22
2022-08-28T10:05:16.308Z,102461.78
2022-08-28T10:08:17.413Z,102454.94
2022-08-28T10:11:00.884Z,102450.28
2022-08-28T10:13:31.555Z,102462.47
2022-08-28T10:16:10.218Z,102451.16
2022-08-28T10:19:11.542Z,102451.16
2022-08-28T10:22:11.256Z,102444.50
2022-08-28T10:25:02.690Z,102458.06
2022-08-28T10:27:45.825Z,102443.38
2022-08-28T10:30:20.842Z,102454.53
2022-08-28T10:33:08.231Z,102459.28
2022-08-28T10:35:57.699Z,102457.44
2022-08-28T10:38:39.859Z,102459.78
2022-08-28T10:41:13.374Z,102452.19
2022-08-28T10:43:49.592Z,102464.19
2022-08-28T10:46:27.521Z,102460.50
2022-08-28T10:49:18.978Z,102461.25
2022-08-28T10:52:13.151Z,102467.97
2022-08-28T10:54:42.609Z,102464.53
2022-08-28T10:57:21.291Z,102469.44
2022-08-28T10:59:52.231Z,102472.84
2022-08-28T11:02:22.280Z,102474.31
2022-08-28T11:04:49.355Z,102458.31
2022-08-28T11:07:26.859Z,102469.31
2022-08-28T11:09:53.453Z,102471.88
2022-08-28T11:12:37.816Z,102470.41
2022-08-28T11:15:40.979Z,102475.91
2022-08-28T11:18:16.705Z,102475.19
2022-08-28T11:21:09.888Z,102465.66
2022-08-28T11:23:47.409Z,102469.91
2022-08-28T11:26:23.540Z,102463.19
2022-08-28T11:28:51.991Z,102473.22
2022-08-28T11:31:28.770Z,102475.66
2022-08-28T11:33:58.928Z,102471.25
2022-08-28T11:36:27.568Z,102475.16
2022-08-28T11:38:54.001Z,102480.16
2022-08-28T11:41:30.337Z,102476.88
2022-08-28T11:43:59.524Z,102475.19
2022-08-28T11:46:33.122Z,102465.97
2022-08-28T11:49:03.193Z,102478.19
2022-08-28T11:51:43.079Z,102471.69
2022-08-28T11:54:47.288Z,102471.94
2022-08-28T11:57:28.337Z,102464.13
2022-08-28T11:59:59.211Z,102470.88
2022-08-28T12:02:48.086Z,102476.63
2022-08-28T12:05:14.512Z,102468.78
2022-08-28T12:07:52.046Z,102472.22
2022-08-28T12:10:24.625Z,102473.06
2022-08-28T12:12:55.814Z,102464.97
2022-08-28T12:15:28.598Z,102468.97
2022-08-28T12:18:03.404Z,102468.38
2022-08-28T12:20:51.305Z,102474.88
2022-08-28T12:23:23.733Z,102466.69
2022-08-28T12:26:03.459Z,102472.50
2022-08-28T12:28:45.900Z,102462.50
2022-08-28T12:31:50.533Z,102462.03
2022-08-28T12:34:55.129Z,102462.59
2022-08-28T12:37:49.469Z,102466.63
2022-08-28T12:40:27.633Z,102469.44
2022-08-28T12:43:00.307Z,102459.22
2022-08-28T12:45:53.645Z,102462.38
2022-08-28T12:48:27.268Z,102460.28
2022-08-28T12:51:18.944Z,102461.75
2022-08-28T12:53:51.325Z,102456.88
2022-08-28T12:56:21.031Z,102461.13
2022-08-28T12:58:48.498Z,102461.19
2022-08-28T13:01:21.063Z,102475.22
2022-08-28T13:03:54.580Z,102477.84
2022-08-28T13:06:28.970Z,102472.44
2022-08-28T13:09:06.232Z,102476.34
2022-08-28T13:11:45.992Z,102465.34
2022-08-28T13:14:12.929Z,102479.81
2022-08-28T13:16:43.359Z,102472.34
2022-08-28T13:19:21.786Z,102460.44
2022-08-28T13:21:48.339Z,102481.16
2022-08-28T13:24:43.416Z,102464.50
2022-08-28T13:27:21.178Z,102467.84
2022-08-28T13:29:59.948Z,102468.72
2022-08-28T13:32:30.944Z,102460.50
2022-08-28T13:35:16.594Z,102467.72
2022-08-28T13:37:53.127Z,102461.88
2022-08-28T13:40:56.835Z,102456.00
2022-08-28T13:43:13.787Z,102462.84
2022-08-28T13:45:43.943Z,102436.81
2022-08-28T13:48:17.260Z,102438.66
2022-08-28T13:50:47.557Z,102449.56
2022-08-28T13:53:17.719Z,102448.56
2022-08-28T13:55:45.332Z,102457.50
2022-08-28T13:58:13.899Z,102456.41
2022-08-28T14:00:46.503Z,102430.31
2022-08-28T14:03:32.387Z,102433.34
2022-08-28T14:05:59.043Z,102449.66
2022-08-28T14:08:26.491Z,102464.31
2022-08-28T14:10:55.359Z,102457.69
2022-08-28T14:13:23.280Z,102456.09
2022-08-28T14:15:50.126Z,102435.91
2022-08-28T14:18:21.226Z,102411.44
2022-08-28T14:20:48.026Z,102417.06
2022-08-28T14:23:16.335Z,102433.44
2022-08-28T14:25:47.251Z,102442.16
2022-08-28T14:28:14.990Z,102429.06
2022-08-28T14:30:42.508Z,102459.97
2022-08-28T14:33:11.898Z,102448.47
2022-08-28T14:35:41.064Z,102420.59
2022-08-28T14:38:11.723Z,102423.22
2022-08-28T14:40:43.838Z,102454.72
2022-08-28T14:43:14.629Z,102435.44
2022-08-28T14:45:46.858Z,102402.78
2022-08-28T14:48:15.022Z,102427.44
2022-08-28T14:50:54.373Z,102453.59
2022-08-28T14:53:21.347Z,102413.88
2022-08-28T14:55:49.803Z,102416.66
2022-08-28T14:58:19.201Z,102436.06
2022-08-28T15:00:48.746Z,102445.72
2022-08-28T15:03:16.583Z,102416.72
2022-08-28T15:05:43.425Z,102427.97
2022-08-28T15:08:14.512Z,102425.25
2022-08-28T15:10:43.149Z,102417.75
2022-08-28T15:13:13.308Z,102444.91
2022-08-28T15:15:42.673Z,102437.88
2022-08-28T15:18:11.049Z,102426.66
2022-08-28T15:20:46.721Z,102431.22
2022-08-28T15:23:15.149Z,102411.81
2022-08-28T15:25:42.707Z,102423.69
2022-08-28T15:28:09.976Z,102439.31
2022-08-28T15:30:36.858Z,102436.34
2022-08-28T15:33:04.077Z,102432.03
2022-08-28T15:35:30.737Z,102431.56
2022-08-28T15:37:57.369Z,102439.19
2022-08-28T15:40:42.587Z,102432.16
2022-08-28T15:43:11.130Z,102428.16
2022-08-28T15:45:46.962Z,102427.41
2022-08-28T15:48:13.534Z,102427.69
2022-08-28T15:50:44.683Z,102416.44
2022-08-28T15:53:14.549Z,102415.66
2022-08-28T15:55:43.297Z,102410.47
2022-08-28T15:58:13.765Z,102419.91
2022-08-28T16:00:43.636Z,102421.19
2022-08-28T16:03:13.188Z,102413.88
2022-08-28T16:05:42.088Z,102423.09
2022-08-28T16:08:12.127Z,102416.03
2022-08-28T16:10:38.770Z,102426.50
2022-08-28T16:13:06.611Z,102420.97
2022-08-28T16:15:33.867Z,102413.88
2022-08-28T16:18:00.355Z,102418.34
2022-08-28T16:20:27.249Z,102415.19
2022-08-28T16:22:54.114Z,102417.75
2022-08-28T16:25:20.742Z,102413.41
2022-08-28T16:27:47.153Z,102413.41
2022-08-28T16:30:17.455Z,102419.94
2022-08-28T16:32:47.851Z,102413.69
2022-08-28T16:35:15.014Z,102415.66
2022-08-28T16:37:42.264Z,102417.88
2022-08-28T16:40:12.433Z,102409.41
2022-08-28T16:42:41.418Z,102412.97
2022-08-28T16:45:11.834Z,102420.72
2022-08-28T16:47:38.648Z,102413.78
2022-08-28T16:50:10.132Z,102405.63
2022-08-28T16:52:36.548Z,102414.75
2022-08-28T16:55:04.020Z,102411.88
2022-08-28T16:57:30.567Z,102403.25
2022-08-28T16:59:57.103Z,102415.00
2022-08-28T17:02:25.241Z,102416.84
2022-08-28T17:05:00.549Z,102423.09
2022-08-28T17:07:29.426Z,102419.91
2022-08-28T17:09:56.041Z,102416.38
2022-08-28T17:12:25.503Z,102411.38
2022-08-28T17:14:52.040Z,102419.94
2022-08-28T17:17:18.512Z,102407.44
2022-08-28T17:19:44.982Z,102406.50
2022-08-28T17:22:30.260Z,102418.00
2022-08-28T17:24:58.748Z,102414.47
2022-08-28T17:27:26.132Z,102418.28
2022-08-28T17:29:53.056Z,102408.88
2022-08-28T17:32:19.648Z,102415.84
2022-08-28T17:34:48.482Z,102415.25
2022-08-28T17:37:15.702Z,102415.13
2022-08-28T17:39:42.919Z,102417.69
2022-08-28T17:42:12.325Z,102422.09
2022-08-28T17:44:38.823Z,102422.34
2022-08-28T17:47:05.953Z,102428.59
2022-08-28T17:49:32.835Z,102418.81
2022-08-28T17:51:59.296Z,102421.13
2022-08-28T17:54:26.265Z,102418.13
2022-08-28T17:56:54.375Z,102425.22
2022-08-28T17:59:22.748Z,102417.28
2022-08-28T18:01:50.047Z,102415.31
2022-08-28T18:04:23.966Z,102415.31
2022-08-28T18:06:55.019Z,102421.44
2022-08-28T18:09:24.793Z,102413.84
2022-08-28T18:11:51.857Z,102408.47
2022-08-28T18:14:18.484Z,102415.91
2022-08-28T18:16:45.035Z,102404.91
2022-08-28T18:19:11.672Z,102407.34
2022-08-28T18:21:38.817Z,102402.84
2022-08-28T18:24:05.438Z,102405.88
2022-08-28T18:26:32.042Z,102403.31
2022-08-28T18:28:59.385Z,102401.34
2022-08-28T18:31:26.511Z,102406.09
2022-08-28T18:33:54.274Z,102406.56
2022-08-28T18:36:22.946Z,102406.16
2022-08-28T18:38:50.005Z,102415.06
2022-08-28T18:41:16.543Z,102411.13
2022-08-28T18:43:43.053Z,102410.06
2022-08-28T18:46:10.026Z,102418.00
2022-08-28T18:48:37.758Z,102418.84
2022-08-28T18:51:08.605Z,102398.28
2022-08-28T18:53:35.944Z,102416.91
2022-08-28T18:56:02.768Z,102420.56
2022-08-28T18:58:31.641Z,102422.63
2022-08-28T19:01:00.938Z,102418.34
2022-08-28T19:03:28.064Z,102426.78
2022-08-28T19:05:56.111Z,102422.97
2022-08-28T19:08:25.197Z,102430.41
2022-08-28T19:10:52.664Z,102435.91
2022-08-28T19:13:21.562Z,102437.00
2022-08-28T19:15:50.685Z,102437.00
2022-08-28T19:18:17.449Z,102435.03
2022-08-28T19:20:44.033Z,102432.13
2022-08-28T19:23:17.364Z,102435.28
2022-08-28T19:25:44.304Z,102435.47
2022-08-28T19:28:16.594Z,102439.94
2022-08-28T19:30:46.487Z,102443.09
2022-08-28T19:33:16.572Z,102450.56
2022-08-28T19:35:43.327Z,102460.97
2022-08-28T19:38:09.889Z,102450.41
2022-08-28T19:40:38.807Z,102448.16
2022-08-28T19:43:05.904Z,102460.50
2022-08-28T19:45:32.464Z,102465.03
2022-08-28T19:47:59.684Z,102455.69
2022-08-28T19:50:26.792Z,102455.69
2022-08-28T19:52:53.313Z,102460.84
2022-08-28T19:55:23.355Z,102463.88
2022-08-28T19:57:49.937Z,102474.03
2022-08-28T20:00:19.894Z,102470.72
2022-08-28T20:02:48.096Z,102478.16
2022-08-28T20:05:15.023Z,102477.53
2022-08-28T20:07:41.550Z,102476.03
2022-08-28T20:10:08.653Z,102474.50
2022-08-28T20:12:35.723Z,102470.84
2022-08-28T20:15:03.732Z,102479.56
2022-08-28T20:17:30.870Z,102481.63
2022-08-28T20:20:02.386Z,102485.69
2022-08-28T20:22:31.792Z,102483.66
2022-08-28T20:24:59.013Z,102494.94
2022-08-28T20:27:26.122Z,102486.25
2022-08-28T20:29:52.627Z,102497.00
2022-08-28T20:32:19.629Z,102491.97
2022-08-28T20:34:47.250Z,102482.31
2022-08-28T20:37:17.162Z,102479.63
2022-08-28T20:39:43.689Z,102467.63
2022-08-28T20:42:11.908Z,102490.47
2022-08-28T20:44:38.465Z,102478.03
2022-08-28T20:47:05.271Z,102492.72
2022-08-28T20:49:31.820Z,102488.19
2022-08-28T20:52:00.870Z,102491.00
2022-08-28T20:54:37.395Z,102489.38
2022-08-28T20:57:07.479Z,102487.97
2022-08-28T20:59:40.068Z,102503.44
2022-08-28T21:02:17.352Z,102489.72
2022-08-28T21:04:45.498Z,102495.72
2022-08-28T21:07:13.723Z,102501.09
2022-08-28T21:10:05.230Z,102513.00
2022-08-28T21:12:30.336Z,102505.47
2022-08-28T21:14:56.874Z,102507.41
2022-08-28T21:17:30.271Z,102503.00
2022-08-28T21:20:02.902Z,102504.28
2022-08-28T21:22:31.410Z,102497.00
2022-08-28T21:25:01.794Z,102503.13
2022-08-28T21:27:29.480Z,102508.94
2022-08-28T21:29:57.524Z,102506.78
2022-08-28T21:32:24.476Z,102505.47
2022-08-28T21:34:51.251Z,102511.06
2022-08-28T21:37:17.738Z,102509.34
2022-08-28T21:39:44.277Z,102505.06
2022-08-28T21:42:13.872Z,102518.34
2022-08-28T21:44:48.377Z,102512.69
2022-08-28T21:47:19.499Z,102520.63
2022-08-28T21:49:49.393Z,102518.00
2022-08-28T21:52:18.121Z,102518.88
2022-08-28T21:54:47.959Z,102523.28
2022-08-28T21:57:15.781Z,102530.13
2022-08-28T21:59:43.545Z,102513.00
2022-08-28T22:02:10.113Z,102514.16
2022-08-28T22:04:36.732Z,102517.59
2022-08-28T22:07:03.260Z,102515.44
2022-08-28T22:09:29.742Z,102500.06
2022-08-28T22:11:56.425Z,102500.38
2022-08-28T22:14:24.569Z,102498.50
2022-08-28T22:16:51.166Z,102512.28
2022-08-28T22:19:17.762Z,102509.81
2022-08-28T22:22:02.551Z,102510.16
2022-08-28T22:24:29.880Z,102516.38
2022-08-28T22:26:57.518Z,102519.69
2022-08-28T22:29:24.848Z,102510.16
2022-08-28T22:31:51.432Z,102517.66
2022-08-28T22:34:18.090Z,102522.69
2022-08-28T22:36:44.608Z,102517.66
2022-08-28T22:39:14.314Z,102513.66
2022-08-28T22:41:41.997Z,102521.59
2022-08-28T22:44:08.780Z,102525.34
2022-08-28T22:46:35.908Z,102521.28
2022-08-28T22:49:02.551Z,102522.44
2022-08-28T22:51:31.016Z,102521.47
2022-08-28T22:53:57.622Z,102515.25
2022-08-28T22:56:24.719Z,102513.56
2022-08-28T22:58:51.249Z,102513.75
2022-08-28T23:01:22.456Z,102513.09
2022-08-28T23:03:49.436Z,102507.22
2022-08-28T23:06:18.087Z,102506.44
2022-08-28T23:08:44.587Z,102510.94
2022-08-28T23:11:11.356Z,102510.50
2022-08-28T23:13:38.552Z,102509.84
2022-08-28T23:16:27.237Z,102507.81
2022-08-28T23:19:08.783Z,102495.19
2022-08-28T23:21:39.229Z,102503.13
2022-08-28T23:24:09.976Z,102501.31
2022-08-28T23:26:36.512Z,102512.00
2022-08-28T23:29:03.469Z,102508.88
2022-08-28T23:31:29.960Z,102515.59
2022-08-28T23:34:01.282Z,102505.38
2022-08-28T23:36:37.159Z,102505.50
2022-08-28T23:39:08.901Z,102507.75
2022-08-28T23:41:35.400Z,102511.50
2022-08-28T23:44:08.276Z,102501.00
2022-08-28T23:46:36.508Z,102508.72
2022-08-28T23:49:03.869Z,102510.84
2022-08-28T23:51:35.453Z,102511.16
2022-08-28T23:54:02.392Z,102501.19
2022-08-28T23:56:30.485Z,102505.13
2022-08-28T23:58:56.962Z,102500.09
